Time;durP1;ratioP1;P1;durP2;ratioP2;P2;SDS_P1;SDS_P2;PMS_P1;PMS_P2;Temp;Humidity;BMP_temperature;BMP_pressure;BME280_temperature;BME280_humidity;BME280_pressure;Samples;Min_cycle;Max_cycle;Signal;HPM_P1;HPM_P2
2021/08/29 00:01:06;;;;;;;17.30;10.57;;;;;;;;;;5092507;28;20042;-60
2021/08/29 00:03:32;;;;;;;19.95;9.93;;;;;;;;;;5093153;28;20027;-60
2021/08/29 00:05:58;;;;;;;18.80;9.95;;;;;;;;;;5092911;28;20089;-61
2021/08/29 00:08:24;;;;;;;18.55;10.20;;;;;;;;;;5093398;28;20434;-62
2021/08/29 00:10:50;;;;;;;20.50;10.45;;;;;;;;;;5091918;28;20024;-60
2021/08/29 00:13:16;;;;;;;18.23;9.93;;;;;;;;;;5093328;28;20149;-59
2021/08/29 00:15:42;;;;;;;18.83;10.60;;;;;;;;;;5092720;28;20024;-60
2021/08/29 00:18:08;;;;;;;20.20;10.57;;;;;;;;;;5091630;28;20345;-60
2021/08/29 00:20:34;;;;;;;18.88;10.45;;;;;;;;;;5093412;28;20081;-60
2021/08/29 00:23:00;;;;;;;20.05;11.02;;;;;;;;;;5092934;28;20514;-61
2021/08/29 00:25:28;;;;;;;17.88;10.00;;;;;;;;;;5091528;28;20036;-62
2021/08/29 00:27:54;;;;;;;17.02;10.23;;;;;;;;;;5093039;28;20021;-61
2021/08/29 00:30:20;;;;;;;21.27;11.30;;;;;;;;;;5092639;28;20058;-62
2021/08/29 00:32:46;;;;;;;20.52;10.55;;;;;;;;;;5091307;28;20085;-62
2021/08/29 00:35:12;;;;;;;18.50;10.93;;;;;;;;;;5092511;28;20426;-62
2021/08/29 00:37:38;;;;;;;22.85;10.82;;;;;;;;;;5092544;28;20061;-63
2021/08/29 00:40:05;;;;;;;19.00;10.38;;;;;;;;;;5093605;28;20440;-61
2021/08/29 00:42:31;;;;;;;18.67;10.38;;;;;;;;;;5092766;28;20035;-61
2021/08/29 00:44:57;;;;;;;18.65;10.55;;;;;;;;;;5092442;28;20028;-60
2021/08/29 00:47:23;;;;;;;19.52;10.73;;;;;;;;;;5091316;28;20305;-60
2021/08/29 00:49:49;;;;;;;25.60;11.20;;;;;;;;;;5090959;28;20027;-60
2021/08/29 00:52:15;;;;;;;19.25;10.35;;;;;;;;;;5092257;28;20024;-61
2021/08/29 00:54:41;;;;;;;21.17;10.45;;;;;;;;;;5092421;28;20507;-61
2021/08/29 00:57:14;;;;;;;18.00;10.32;;;;;;;;;;5092347;28;20055;-60
2021/08/29 00:59:40;;;;;;;21.50;11.07;;;;;;;;;;5092355;28;20024;-61
2021/08/29 01:02:13;;;;;;;19.20;10.63;;;;;;;;;;5092234;28;20081;-61
2021/08/29 01:04:44;;;;;;;18.60;10.70;;;;;;;;;;5092109;28;20473;-61
2021/08/29 01:07:14;;;;;;;19.27;10.55;;;;;;;;;;5092375;28;20028;-62
2021/08/29 01:09:42;;;;;;;17.05;10.07;;;;;;;;;;5091007;28;20028;-61
2021/08/29 01:12:08;;;;;;;18.55;10.38;;;;;;;;;;5090846;28;20028;-62
2021/08/29 01:14:35;;;;;;;17.63;9.90;;;;;;;;;;5092160;28;20092;-61
2021/08/29 01:17:03;;;;;;;20.73;10.43;;;;;;;;;;5091989;28;20026;-62
2021/08/29 01:19:40;;;;;;;28.92;10.80;;;;;;;;;;5090933;28;20081;-60
2021/08/29 01:22:07;;;;;;;24.20;11.00;;;;;;;;;;5091850;28;20032;-62
2021/08/29 01:24:33;;;;;;;20.50;10.68;;;;;;;;;;5090787;28;20035;-60
2021/08/29 01:27:10;;;;;;;19.23;11.20;;;;;;;;;;5090195;28;20024;-61
2021/08/29 01:29:36;;;;;;;19.33;11.13;;;;;;;;;;5091584;28;20028;-60
2021/08/29 01:32:04;;;;;;;19.80;10.13;;;;;;;;;;5091567;28;20103;-61
2021/08/29 01:34:30;;;;;;;19.33;10.73;;;;;;;;;;5090722;28;20034;-61
2021/08/29 01:36:57;;;;;;;20.48;10.43;;;;;;;;;;5089832;28;20491;-60
2021/08/29 01:39:23;;;;;;;18.85;10.57;;;;;;;;;;5090239;28;20103;-62
2021/08/29 01:41:50;;;;;;;20.08;10.68;;;;;;;;;;5091491;28;20107;-60
2021/08/29 01:44:17;;;;;;;21.35;11.10;;;;;;;;;;5090415;28;20470;-61
2021/08/29 01:46:45;;;;;;;21.80;10.75;;;;;;;;;;5091398;28;20035;-61
2021/08/29 01:49:12;;;;;;;20.65;10.25;;;;;;;;;;5091329;28;20044;-61
2021/08/29 01:51:39;;;;;;;18.73;10.48;;;;;;;;;;5091148;28;20024;-61
2021/08/29 01:54:05;;;;;;;22.70;11.10;;;;;;;;;;5090992;28;20020;-61
2021/08/29 01:56:31;;;;;;;20.45;10.60;;;;;;;;;;5090990;28;20028;-61
2021/08/29 01:58:56;;;;;;;20.83;11.70;;;;;;;;;;5091069;28;20453;-61
2021/08/29 02:01:23;;;;;;;21.83;10.40;;;;;;;;;;5089999;28;20116;-61
2021/08/29 02:03:50;;;;;;;21.73;11.20;;;;;;;;;;5091156;28;20028;-61
2021/08/29 02:06:19;;;;;;;20.08;11.32;;;;;;;;;;5090803;28;20482;-61
2021/08/29 02:08:49;;;;;;;19.25;10.57;;;;;;;;;;5091113;28;20070;-61
2021/08/29 02:11:17;;;;;;;18.27;10.88;;;;;;;;;;5090766;28;20119;-61
2021/08/29 02:13:43;;;;;;;;;;;;;;;;;;5092708;28;20020;-58
2021/08/29 02:16:11;;;;;;;19.13;10.63;;;;;;;;;;5091873;28;19911;-61
2021/08/29 02:18:37;;;;;;;24.30;11.05;;;;;;;;;;5091396;28;20524;-61
2021/08/29 02:21:04;;;;;;;19.65;10.57;;;;;;;;;;5091010;28;20016;-61
2021/08/29 02:23:30;;;;;;;22.65;11.57;;;;;;;;;;5091060;28;20024;-62
2021/08/29 02:25:56;;;;;;;21.95;11.57;;;;;;;;;;5090769;28;20074;-62
2021/08/29 02:28:22;;;;;;;20.10;11.73;;;;;;;;;;5090860;28;20020;-61
2021/08/29 02:30:49;;;;;;;21.08;11.77;;;;;;;;;;5090781;28;20031;-62
2021/08/29 02:33:15;;;;;;;20.70;12.23;;;;;;;;;;5090835;28;20392;-61
2021/08/29 02:35:42;;;;;;;26.30;12.38;;;;;;;;;;5090475;28;20111;-61
2021/08/29 02:38:08;;;;;;;22.65;12.20;;;;;;;;;;5089548;28;20136;-61
2021/08/29 02:40:39;;;;;;;22.27;12.50;;;;;;;;;;5090898;28;20449;-62
2021/08/29 02:43:07;;;;;;;21.05;11.52;;;;;;;;;;5090997;28;20408;-61
2021/08/29 02:45:36;;;;;;;20.83;11.90;;;;;;;;;;5090848;28;20028;-61
2021/08/29 02:48:02;;;;;;;;;;;;;;;;;;5091262;28;20024;-61
2021/08/29 02:50:29;;;;;;;22.25;12.38;;;;;;;;;;5089778;28;20433;-60
2021/08/29 02:52:55;;;;;;;21.67;11.48;;;;;;;;;;5091054;28;20039;-62
2021/08/29 02:55:21;;;;;;;23.73;12.70;;;;;;;;;;5091130;28;20020;-60
2021/08/29 02:57:51;;;;;;;27.65;13.27;;;;;;;;;;5090755;28;20099;-61
2021/08/29 03:00:17;;;;;;;26.48;12.90;;;;;;;;;;5090723;28;20091;-61
2021/08/29 03:02:43;;;;;;;22.98;13.10;;;;;;;;;;5090671;28;20027;-61
2021/08/29 03:05:10;;;;;;;21.58;12.07;;;;;;;;;;5091621;28;20032;-61
2021/08/29 03:07:36;;;;;;;24.05;12.80;;;;;;;;;;5094498;28;20028;-62
2021/08/29 03:10:03;;;;;;;25.02;14.00;;;;;;;;;;5092801;28;20119;-61
2021/08/29 03:12:30;;;;;;;25.08;12.68;;;;;;;;;;5094159;28;20016;-62
2021/08/29 03:14:56;;;;;;;24.30;13.43;;;;;;;;;;5094074;28;20043;-61
2021/08/29 03:17:22;;;;;;;26.75;13.45;;;;;;;;;;5093965;28;20020;-60
2021/08/29 03:19:50;;;;;;;23.73;12.70;;;;;;;;;;5094122;28;20020;-60
2021/08/29 03:22:17;;;;;;;23.30;13.32;;;;;;;;;;5093961;28;20454;-60
2021/08/29 03:24:43;;;;;;;25.17;12.95;;;;;;;;;;5093630;28;20496;-59
2021/08/29 03:27:09;;;;;;;21.80;13.45;;;;;;;;;;5092033;28;20400;-60
2021/08/29 03:29:35;;;;;;;24.35;13.70;;;;;;;;;;5092337;28;20024;-60
2021/08/29 03:32:01;;;;;;;24.20;13.45;;;;;;;;;;5093435;28;20091;-60
2021/08/29 03:34:28;;;;;;;22.05;13.35;;;;;;;;;;5091978;28;20153;-60
2021/08/29 03:36:55;;;;;;;24.58;13.10;;;;;;;;;;5093392;28;20024;-60
2021/08/29 03:39:22;;;;;;;23.33;13.50;;;;;;;;;;5093761;28;20052;-60
2021/08/29 03:41:49;;;;;;;27.25;14.30;;;;;;;;;;5091966;28;20079;-61
2021/08/29 03:44:15;;;;;;;25.63;13.38;;;;;;;;;;5092028;28;20039;-60
2021/08/29 03:46:41;;;;;;;24.50;12.60;;;;;;;;;;5093039;28;20393;-61
2021/08/29 03:49:07;;;;;;;24.23;12.80;;;;;;;;;;5093135;28;20081;-62
2021/08/29 03:51:34;;;;;;;26.90;12.90;;;;;;;;;;5091967;28;20035;-60
2021/08/29 03:54:03;;;;;;;28.45;13.88;;;;;;;;;;5093177;28;20046;-59
2021/08/29 03:56:29;;;;;;;22.40;12.55;;;;;;;;;;5092800;28;20477;-61
2021/08/29 03:58:55;;;;;;;26.90;13.18;;;;;;;;;;5091798;28;20024;-60
2021/08/29 04:01:21;;;;;;;26.85;13.40;;;;;;;;;;5092981;28;20134;-60
2021/08/29 04:03:48;;;;;;;21.05;12.60;;;;;;;;;;5093086;28;20024;-60
2021/08/29 04:06:14;;;;;;;23.90;13.55;;;;;;;;;;5091520;28;20023;-62
2021/08/29 04:08:45;;;;;;;24.45;13.27;;;;;;;;;;5092883;28;20180;-60
2021/08/29 04:11:11;;;;;;;22.80;13.10;;;;;;;;;;5092966;28;20506;-59
2021/08/29 04:13:37;;;;;;;22.23;13.13;;;;;;;;;;5092803;28;20035;-60
2021/08/29 04:16:04;;;;;;;22.50;13.63;;;;;;;;;;5091921;28;20021;-61
2021/08/29 04:18:34;;;;;;;21.08;12.57;;;;;;;;;;5091391;28;20020;-60
2021/08/29 04:21:00;;;;;;;22.38;13.52;;;;;;;;;;5092773;28;20039;-61
2021/08/29 04:23:26;;;;;;;23.52;12.90;;;;;;;;;;5091442;28;20020;-63
2021/08/29 04:25:52;;;;;;;23.75;14.10;;;;;;;;;;5092280;28;20042;-61
2021/08/29 04:28:18;;;;;;;20.42;12.43;;;;;;;;;;5091431;28;20034;-61
2021/08/29 04:30:44;;;;;;;28.00;13.50;;;;;;;;;;5091468;28;20020;-61
2021/08/29 04:33:10;;;;;;;23.25;14.13;;;;;;;;;;5091147;28;20097;-62
2021/08/29 04:35:36;;;;;;;22.80;14.27;;;;;;;;;;5092170;28;20048;-60
2021/08/29 04:38:02;;;;;;;28.55;14.07;;;;;;;;;;5092308;28;20353;-62
2021/08/29 04:40:28;;;;;;;24.85;14.15;;;;;;;;;;5091032;28;20491;-61
2021/08/29 04:42:54;;;;;;;25.75;13.50;;;;;;;;;;5092457;28;20031;-61
2021/08/29 04:45:20;;;;;;;26.98;13.20;;;;;;;;;;5092190;28;20110;-62
2021/08/29 04:47:46;;;;;;;25.25;13.98;;;;;;;;;;5092457;28;20024;-61
2021/08/29 04:50:12;;;;;;;21.60;13.65;;;;;;;;;;5117367;22;20070;-63
2021/08/29 04:52:38;;;;;;;25.60;13.20;;;;;;;;;;5095272;28;20035;-63
2021/08/29 04:55:04;;;;;;;22.33;12.75;;;;;;;;;;5113356;28;20053;-62
2021/08/29 04:57:30;;;;;;;22.63;12.57;;;;;;;;;;5095119;28;20027;-63
2021/08/29 04:59:56;;;;;;;24.42;13.40;;;;;;;;;;5095313;28;20024;-63
2021/08/29 05:02:22;;;;;;;23.58;13.55;;;;;;;;;;5108379;28;20034;-63
2021/08/29 05:04:48;;;;;;;25.40;12.95;;;;;;;;;;5078367;28;20020;-63
2021/08/29 05:07:14;;;;;;;28.60;13.60;;;;;;;;;;5113489;28;20027;-63
2021/08/29 05:09:40;;;;;;;23.27;13.07;;;;;;;;;;5104766;28;20027;-65
2021/08/29 05:12:06;;;;;;;24.00;13.27;;;;;;;;;;5092821;28;20036;-62
2021/08/29 05:14:32;;;;;;;25.00;13.07;;;;;;;;;;5093012;28;20031;-62
2021/08/29 05:16:58;;;;;;;23.45;13.45;;;;;;;;;;5074214;28;20025;-62
2021/08/29 05:19:24;;;;;;;22.45;12.88;;;;;;;;;;5111009;28;20020;-63
2021/08/29 05:21:50;;;;;;;22.80;13.40;;;;;;;;;;5113346;28;20099;-63
2021/08/29 05:24:16;;;;;;;21.45;13.18;;;;;;;;;;5094653;28;20027;-62
2021/08/29 05:26:42;;;;;;;21.55;13.18;;;;;;;;;;5094970;28;20097;-61
2021/08/29 05:29:08;;;;;;;24.60;13.40;;;;;;;;;;5094118;28;20508;-63
2021/08/29 05:31:34;;;;;;;26.73;13.88;;;;;;;;;;5094986;28;20101;-62
2021/08/29 05:34:00;;;;;;;23.90;14.23;;;;;;;;;;5095734;28;20050;-63
2021/08/29 05:36:26;;;;;;;26.40;13.85;;;;;;;;;;5078101;28;20603;-57
2021/08/29 05:38:52;;;;;;;23.27;13.90;;;;;;;;;;5075464;28;20052;-63
2021/08/29 05:41:18;;;;;;;23.80;14.30;;;;;;;;;;5074651;28;20111;-62
2021/08/29 05:43:44;;;;;;;23.48;13.38;;;;;;;;;;5074482;28;20020;-63
2021/08/29 05:46:10;;;;;;;24.42;13.80;;;;;;;;;;5092298;28;20048;-61
2021/08/29 05:48:36;;;;;;;22.48;14.07;;;;;;;;;;5092363;28;20455;-61
2021/08/29 05:51:02;;;;;;;23.35;13.90;;;;;;;;;;5074317;28;20030;-61
2021/08/29 05:53:28;;;;;;;23.38;13.65;;;;;;;;;;5074099;28;20024;-61
2021/08/29 05:55:55;;;;;;;25.70;14.48;;;;;;;;;;5092075;28;20467;-62
2021/08/29 05:58:21;;;;;;;25.67;14.45;;;;;;;;;;5092451;28;20016;-59
2021/08/29 06:00:47;;;;;;;20.38;14.07;;;;;;;;;;5092316;28;20517;-60
2021/08/29 06:03:13;;;;;;;21.48;13.45;;;;;;;;;;5089785;28;20035;-64
2021/08/29 06:05:39;;;;;;;24.60;14.85;;;;;;;;;;5112170;28;20094;-59
2021/08/29 06:08:05;;;;;;;26.88;14.93;;;;;;;;;;5112372;28;20028;-60
2021/08/29 06:10:31;;;;;;;22.38;13.55;;;;;;;;;;5094042;28;20055;-61
2021/08/29 06:12:57;;;;;;;21.50;13.25;;;;;;;;;;5112573;28;20104;-63
2021/08/29 06:15:23;;;;;;;22.77;13.45;;;;;;;;;;5094175;28;20157;-63
2021/08/29 06:17:49;;;;;;;21.13;12.88;;;;;;;;;;5112795;28;20024;-63
2021/08/29 06:20:15;;;;;;;18.90;12.80;;;;;;;;;;5094381;28;20046;-63
2021/08/29 06:22:41;;;;;;;21.83;13.75;;;;;;;;;;5094380;28;20475;-63
2021/08/29 06:25:07;;;;;;;22.15;13.90;;;;;;;;;;5088570;28;20043;-61
2021/08/29 06:27:33;;;;;;;23.48;14.90;;;;;;;;;;5102950;28;20028;-64
2021/08/29 06:29:59;;;;;;;24.10;15.10;;;;;;;;;;5101331;28;20080;-63
2021/08/29 06:32:25;;;;;;;20.83;14.93;;;;;;;;;;5080659;28;20472;-64
2021/08/29 06:34:51;;;;;;;23.38;14.93;;;;;;;;;;5084375;28;20017;-64
2021/08/29 06:37:17;;;;;;;21.95;15.35;;;;;;;;;;5082476;28;20111;-63
2021/08/29 06:39:43;;;;;;;21.65;15.40;;;;;;;;;;5085202;28;20027;-65
2021/08/29 06:42:09;;;;;;;23.77;14.93;;;;;;;;;;5088003;28;20032;-64
2021/08/29 06:44:35;;;;;;;21.63;15.68;;;;;;;;;;5086254;28;20065;-63
2021/08/29 06:47:01;;;;;;;19.77;14.48;;;;;;;;;;5107047;28;20440;-64
2021/08/29 06:49:27;;;;;;;23.88;14.27;;;;;;;;;;5115875;28;20040;-63
2021/08/29 06:51:53;;;;;;;20.25;14.70;;;;;;;;;;5097725;28;20415;-64
2021/08/29 06:54:19;;;;;;;21.98;14.52;;;;;;;;;;5097831;28;20028;-64
2021/08/29 06:56:45;;;;;;;23.52;14.98;;;;;;;;;;5097541;28;20092;-64
2021/08/29 06:59:11;;;;;;;21.92;14.38;;;;;;;;;;5115813;28;20046;-64
2021/08/29 07:01:37;;;;;;;22.23;14.55;;;;;;;;;;5115696;28;20023;-63
2021/08/29 07:04:03;;;;;;;18.80;14.32;;;;;;;;;;5115558;28;20574;-64
2021/08/29 07:06:29;;;;;;;20.50;14.00;;;;;;;;;;5097304;28;20038;-64
2021/08/29 07:08:55;;;;;;;19.63;14.13;;;;;;;;;;5097334;28;20122;-64
2021/08/29 07:11:21;;;;;;;19.27;14.00;;;;;;;;;;5115588;28;20045;-64
2021/08/29 07:13:47;;;;;;;19.58;14.05;;;;;;;;;;5097241;28;20478;-64
2021/08/29 07:16:13;;;;;;;21.30;19.10;;;;;;;;;;5115468;28;20123;-64
2021/08/29 07:18:39;;;;;;;21.80;19.55;;;;;;;;;;5115471;28;20095;-64
2021/08/29 07:21:05;;;;;;;21.73;19.35;;;;;;;;;;5115481;28;20506;-64
2021/08/29 07:23:31;;;;;;;21.95;19.40;;;;;;;;;;5109476;28;20055;-64
2021/08/29 07:25:57;;;;;;;22.08;19.63;;;;;;;;;;5106250;28;20055;-62
2021/08/29 07:28:23;;;;;;;21.73;19.48;;;;;;;;;;5109070;28;20031;-63
2021/08/29 07:30:49;;;;;;;21.55;19.35;;;;;;;;;;5096514;28;20023;-63
2021/08/29 07:33:15;;;;;;;21.08;18.88;;;;;;;;;;5114968;28;20106;-63
2021/08/29 07:35:41;;;;;;;21.23;18.52;;;;;;;;;;5114837;28;20073;-63
2021/08/29 07:38:07;;;;;;;20.90;18.73;;;;;;;;;;5097021;28;20460;-63
2021/08/29 07:40:33;;;;;;;20.42;18.00;;;;;;;;;;5115034;28;20024;-63
2021/08/29 07:42:59;;;;;;;20.10;18.00;;;;;;;;;;5096933;28;20213;-63
2021/08/29 07:45:26;;;;;;;19.77;17.77;;;;;;;;;;5114691;28;20564;-63
2021/08/29 07:47:53;;;;;;;19.58;17.48;;;;;;;;;;5114685;28;20023;-65
2021/08/29 07:50:25;;;;;;;19.20;17.20;;;;;;;;;;5096126;28;20035;-63
2021/08/29 07:52:51;;;;;;;19.42;17.45;;;;;;;;;;5114443;28;20027;-63
2021/08/29 07:55:19;;;;;;;19.90;17.80;;;;;;;;;;5114342;28;20020;-63
2021/08/29 07:57:45;;;;;;;19.10;17.10;;;;;;;;;;5114768;28;20391;-63
2021/08/29 08:00:11;;;;;;;18.80;16.80;;;;;;;;;;5114506;28;20024;-63
2021/08/29 08:02:37;;;;;;;18.70;16.70;;;;;;;;;;5096210;28;20442;-61
2021/08/29 08:05:03;;;;;;;18.80;16.80;;;;;;;;;;5114494;28;20502;-63
2021/08/29 08:07:29;;;;;;;18.08;16.17;;;;;;;;;;5114437;28;20033;-64
2021/08/29 08:09:55;;;;;;;18.70;16.75;;;;;;;;;;5096243;28;20503;-63
2021/08/29 08:12:21;;;;;;;18.70;16.75;;;;;;;;;;5109059;28;20062;-63
2021/08/29 08:14:47;;;;;;;18.50;16.50;;;;;;;;;;5104461;28;20472;-64
2021/08/29 08:17:13;;;;;;;18.55;16.55;;;;;;;;;;5108391;28;20038;-64
2021/08/29 08:19:39;;;;;;;18.58;16.58;;;;;;;;;;5106380;28;20019;-63
2021/08/29 08:22:05;;;;;;;19.00;17.00;;;;;;;;;;5087626;28;20046;-63
2021/08/29 08:24:31;;;;;;;18.75;16.75;;;;;;;;;;5086702;28;20058;-63
2021/08/29 08:26:57;;;;;;;18.88;16.88;;;;;;;;;;5083819;28;20024;-63
2021/08/29 08:29:23;;;;;;;18.00;16.10;;;;;;;;;;5106519;28;20024;-62
2021/08/29 08:31:49;;;;;;;18.70;16.70;;;;;;;;;;5103579;28;20020;-62
2021/08/29 08:34:15;;;;;;;18.70;16.80;;;;;;;;;;5099795;28;20080;-63
2021/08/29 08:36:41;;;;;;;18.52;16.45;;;;;;;;;;5092714;28;20118;-62
2021/08/29 08:39:07;;;;;;;18.65;16.75;;;;;;;;;;5090269;28;20162;-62
2021/08/29 08:41:33;;;;;;;18.20;16.30;;;;;;;;;;5104044;28;20032;-63
2021/08/29 08:43:59;;;;;;;18.80;16.80;;;;;;;;;;5087794;28;20032;-64
2021/08/29 08:46:25;;;;;;;17.83;16.02;;;;;;;;;;5113415;28;20035;-62
2021/08/29 08:48:52;;;;;;;17.98;16.08;;;;;;;;;;5095355;28;20027;-63
2021/08/29 08:51:22;;;;;;;18.38;16.48;;;;;;;;;;5113903;28;20448;-64
2021/08/29 08:53:51;;;;;;;18.00;16.10;;;;;;;;;;5113901;28;20072;-63
2021/08/29 08:56:18;;;;;;;18.70;16.30;;;;;;;;;;5095342;28;20024;-63
2021/08/29 08:58:44;;;;;;;18.35;16.45;;;;;;;;;;5113237;28;20020;-63
2021/08/29 09:01:11;;;;;;;21.27;16.80;;;;;;;;;;5094616;28;20108;-63
2021/08/29 09:03:37;;;;;;;18.65;16.65;;;;;;;;;;5094595;28;20027;-63
2021/08/29 09:06:05;;;;;;;18.70;16.40;;;;;;;;;;5095013;28;20556;-63
2021/08/29 09:08:31;;;;;;;18.30;16.40;;;;;;;;;;5114983;28;20049;-66
2021/08/29 09:10:57;;;;;;;18.88;16.88;;;;;;;;;;5115581;28;20034;-68
2021/08/29 09:13:23;;;;;;;19.00;17.00;;;;;;;;;;5097509;28;20422;-68
2021/08/29 09:15:49;;;;;;;18.50;16.45;;;;;;;;;;5097532;28;20562;-66
2021/08/29 09:18:15;;;;;;;18.67;16.27;;;;;;;;;;5098568;28;20058;-67
2021/08/29 09:20:41;;;;;;;19.73;16.67;;;;;;;;;;5097600;28;20111;-64
2021/08/29 09:23:07;;;;;;;18.73;16.55;;;;;;;;;;5113397;28;20031;-64
2021/08/29 09:25:40;;;;;;;18.80;16.90;;;;;;;;;;5094444;28;20047;-64
2021/08/29 09:28:09;;;;;;;18.50;16.45;;;;;;;;;;5113094;28;20023;-64
2021/08/29 09:30:35;;;;;;;18.45;16.45;;;;;;;;;;5094666;28;20121;-65
2021/08/29 09:33:02;;;;;;;19.08;17.08;;;;;;;;;;5094633;28;20396;-64
2021/08/29 09:35:29;;;;;;;19.48;17.45;;;;;;;;;;5111262;28;20034;-64
2021/08/29 09:37:56;;;;;;;18.45;16.55;;;;;;;;;;5084573;28;20176;-64
2021/08/29 09:40:23;;;;;;;18.75;16.75;;;;;;;;;;5101061;28;20026;-64
2021/08/29 09:42:50;;;;;;;18.80;16.80;;;;;;;;;;5084431;28;20051;-65
2021/08/29 09:45:20;;;;;;;20.08;17.88;;;;;;;;;;5084709;28;20024;-64
2021/08/29 09:47:46;;;;;;;21.23;19.02;;;;;;;;;;5101523;28;20016;-64
2021/08/29 09:50:14;;;;;;;19.67;17.45;;;;;;;;;;5083666;28;20042;-64
2021/08/29 09:52:40;;;;;;;20.10;18.00;;;;;;;;;;5103198;28;20020;-64
2021/08/29 09:55:06;;;;;;;19.50;17.50;;;;;;;;;;5090918;28;20031;-63
2021/08/29 09:57:33;;;;;;;19.65;17.60;;;;;;;;;;5093978;28;20076;-64
2021/08/29 09:59:59;;;;;;;19.45;17.45;;;;;;;;;;5093996;28;20023;-64
2021/08/29 10:02:26;;;;;;;19.90;17.80;;;;;;;;;;5090967;28;20024;-65
2021/08/29 10:05:11;;;;;;;19.00;17.02;;;;;;;;;;5084047;28;20071;-64
2021/08/29 10:07:37;;;;;;;19.20;17.15;;;;;;;;;;5111042;28;20360;-64
2021/08/29 10:10:22;;;;;;;20.17;17.38;;;;;;;;;;5093829;28;20101;-64
2021/08/29 10:12:48;;;;;;;19.42;17.42;;;;;;;;;;5100071;28;20018;-64
2021/08/29 10:15:16;;;;;;;19.33;17.33;;;;;;;;;;5085872;28;20039;-64
2021/08/29 10:17:43;;;;;;;18.10;16.20;;;;;;;;;;5088794;28;20471;-65
2021/08/29 10:20:10;;;;;;;18.85;16.85;;;;;;;;;;5088214;28;20020;-64
2021/08/29 10:22:36;;;;;;;18.80;16.80;;;;;;;;;;5106305;28;20023;-64
2021/08/29 10:25:02;;;;;;;19.52;17.45;;;;;;;;;;5089861;28;20032;-64
2021/08/29 10:27:31;;;;;;;18.73;16.83;;;;;;;;;;5105723;28;20027;-65
2021/08/29 10:29:59;;;;;;;18.75;16.85;;;;;;;;;;5087159;28;20072;-64
2021/08/29 10:32:26;;;;;;;20.63;17.98;;;;;;;;;;5088909;28;20518;-64
2021/08/29 10:34:52;;;;;;;22.25;19.92;;;;;;;;;;5087472;28;20016;-65
2021/08/29 10:37:18;;;;;;;19.70;17.60;;;;;;;;;;5086688;28;20387;-64
2021/08/29 10:39:44;;;;;;;20.02;18.02;;;;;;;;;;5088690;28;20016;-64
2021/08/29 10:42:12;;;;;;;19.77;17.77;;;;;;;;;;5087261;28;20473;-64
2021/08/29 10:44:38;;;;;;;19.73;17.63;;;;;;;;;;5086561;28;20020;-64
2021/08/29 10:47:05;;;;;;;19.80;17.77;;;;;;;;;;5088505;28;20019;-64
2021/08/29 10:49:32;;;;;;;19.73;17.73;;;;;;;;;;5100546;22;20552;-66
2021/08/29 10:51:58;;;;;;;20.88;18.70;;;;;;;;;;5072892;28;20029;-64
2021/08/29 10:54:24;;;;;;;19.80;17.83;;;;;;;;;;5073220;28;20031;-65
2021/08/29 10:56:50;;;;;;;20.83;18.75;;;;;;;;;;5072615;28;20021;-65
2021/08/29 10:59:20;;;;;;;19.88;17.88;;;;;;;;;;5073122;28;20017;-63
2021/08/29 11:01:48;;;;;;;20.67;17.98;;;;;;;;;;5072784;28;20031;-64
2021/08/29 11:04:20;;;;;;;19.10;17.10;;;;;;;;;;5074152;28;20154;-65
2021/08/29 11:06:56;;;;;;;19.33;17.42;;;;;;;;;;5072583;28;20028;-65
2021/08/29 11:09:35;;;;;;;19.80;17.80;;;;;;;;;;5072888;28;20028;-64
2021/08/29 11:12:07;;;;;;;19.80;17.70;;;;;;;;;;5074150;28;20480;-64
2021/08/29 11:14:40;;;;;;;20.40;18.30;;;;;;;;;;5074015;28;20077;-64
2021/08/29 11:17:13;;;;;;;19.25;17.25;;;;;;;;;;5072315;28;20024;-63
2021/08/29 11:19:40;;;;;;;19.48;17.40;;;;;;;;;;5074000;28;20069;-63
2021/08/29 11:22:07;;;;;;;19.35;17.35;;;;;;;;;;5072680;28;20405;-65
2021/08/29 11:24:51;;;;;;;19.27;17.33;;;;;;;;;;5062257;28;20448;-64
2021/08/29 11:27:39;;;;;;;20.88;18.77;;;;;;;;;;5070141;28;20028;-64
2021/08/29 11:30:09;;;;;;;19.63;17.58;;;;;;;;;;5073565;28;20147;-64
2021/08/29 11:32:39;;;;;;;19.15;17.08;;;;;;;;;;5073801;28;20503;-65
2021/08/29 11:35:06;;;;;;;18.02;16.13;;;;;;;;;;5072359;28;20032;-64
2021/08/29 11:37:32;;;;;;;18.20;16.30;;;;;;;;;;5073796;28;20348;-65
2021/08/29 11:40:03;;;;;;;19.20;17.08;;;;;;;;;;5073555;28;20464;-63
2021/08/29 11:42:29;;;;;;;18.98;17.02;;;;;;;;;;5073304;28;20545;-64
2021/08/29 11:44:56;;;;;;;18.60;16.42;;;;;;;;;;5072178;28;20074;-66
2021/08/29 11:47:23;;;;;;;18.77;16.77;;;;;;;;;;5073668;28;20072;-65
2021/08/29 11:49:56;;;;;;;18.88;16.63;;;;;;;;;;5073188;28;20032;-65
2021/08/29 11:52:29;;;;;;;19.45;17.13;;;;;;;;;;5071903;28;20063;-64
2021/08/29 11:55:04;;;;;;;23.17;17.73;;;;;;;;;;5071955;28;20373;-65
2021/08/29 11:57:31;;;;;;;19.08;17.08;;;;;;;;;;5071919;28;20395;-63
2021/08/29 12:00:07;;;;;;;19.20;17.17;;;;;;;;;;5071900;28;20020;-67
2021/08/29 12:02:37;;;;;;;19.02;16.85;;;;;;;;;;5071632;28;20139;-64
2021/08/29 12:05:07;;;;;;;20.20;16.98;;;;;;;;;;5073066;28;20030;-64
2021/08/29 12:07:37;;;;;;;19.00;16.70;;;;;;;;;;5071499;28;20124;-63
2021/08/29 12:10:03;;;;;;;19.00;17.00;;;;;;;;;;5072978;28;20028;-64
2021/08/29 12:12:29;;;;;;;18.33;16.30;;;;;;;;;;5072642;28;20028;-64
2021/08/29 12:14:56;;;;;;;18.10;15.98;;;;;;;;;;5072910;28;20024;-64
2021/08/29 12:17:22;;;;;;;19.90;16.65;;;;;;;;;;5072607;28;20020;-65
2021/08/29 12:19:51;;;;;;;19.02;16.83;;;;;;;;;;5072955;28;20480;-63
2021/08/29 12:22:17;;;;;;;19.65;17.13;;;;;;;;;;5071559;28;20035;-64
2021/08/29 12:24:43;;;;;;;18.98;16.90;;;;;;;;;;5066628;28;20438;-65
2021/08/29 12:27:11;;;;;;;19.83;17.75;;;;;;;;;;5065164;28;20067;-65
2021/08/29 12:29:44;;;;;;;19.45;17.35;;;;;;;;;;5071141;28;20024;-65
2021/08/29 12:32:11;;;;;;;18.63;16.65;;;;;;;;;;5072028;28;20067;-64
2021/08/29 12:34:38;;;;;;;19.50;17.40;;;;;;;;;;5071003;28;20058;-64
2021/08/29 12:37:05;;;;;;;18.30;16.30;;;;;;;;;;5071721;28;20500;-65
2021/08/29 12:39:31;;;;;;;18.48;16.25;;;;;;;;;;5071022;28;20441;-65
2021/08/29 12:42:16;;;;;;;18.10;15.98;;;;;;;;;;5071111;28;20039;-65
2021/08/29 12:44:42;;;;;;;17.95;16.05;;;;;;;;;;5072010;28;20071;-63
2021/08/29 12:47:08;;;;;;;19.23;16.73;;;;;;;;;;5071767;28;20500;-63
2021/08/29 12:49:34;;;;;;;17.88;15.98;;;;;;;;;;5067708;28;20110;-63
2021/08/29 12:52:01;;;;;;;19.27;16.58;;;;;;;;;;5061896;28;20029;-64
2021/08/29 12:54:27;;;;;;;18.98;16.20;;;;;;;;;;5060368;28;20017;-63
2021/08/29 12:56:53;;;;;;;18.65;16.60;;;;;;;;;;5055829;28;20025;-62
2021/08/29 12:59:29;;;;;;;17.75;15.85;;;;;;;;;;5052764;28;20087;-63
2021/08/29 13:01:57;;;;;;;18.50;16.50;;;;;;;;;;5060383;28;20024;-63
2021/08/29 13:04:27;;;;;;;18.40;16.40;;;;;;;;;;5058120;28;20031;-62
2021/08/29 13:07:02;;;;;;;18.98;15.98;;;;;;;;;;5057233;28;20037;-63
2021/08/29 13:09:28;;;;;;;18.25;16.35;;;;;;;;;;5056206;28;20031;-62
2021/08/29 13:11:54;;;;;;;18.45;16.50;;;;;;;;;;5068079;28;20036;-64
2021/08/29 13:14:28;;;;;;;19.42;15.65;;;;;;;;;;5068816;28;20173;-64
2021/08/29 13:16:54;;;;;;;18.13;15.80;;;;;;;;;;5067007;28;20024;-62
2021/08/29 13:19:27;;;;;;;17.60;15.70;;;;;;;;;;5069236;28;20582;-63
2021/08/29 13:21:57;;;;;;;18.08;16.17;;;;;;;;;;5069068;28;20119;-63
2021/08/29 13:24:27;;;;;;;17.85;16.05;;;;;;;;;;5068958;28;20107;-63
2021/08/29 13:26:55;;;;;;;17.50;15.60;;;;;;;;;;5069359;28;20515;-63
2021/08/29 13:29:21;;;;;;;17.48;15.68;;;;;;;;;;5069359;28;20032;-64
2021/08/29 13:31:48;;;;;;;19.90;16.52;;;;;;;;;;5070750;28;20100;-63
2021/08/29 13:34:14;;;;;;;17.60;15.70;;;;;;;;;;5065189;28;20052;-64
2021/08/29 13:36:48;;;;;;;17.65;15.75;;;;;;;;;;4716629;28;10000388;-64
2021/08/29 13:39:17;;;;;;;17.50;15.70;;;;;;;;;;5056595;28;20029;-63
2021/08/29 13:41:44;;;;;;;17.35;15.48;;;;;;;;;;5048459;28;20166;-64
2021/08/29 13:44:15;;;;;;;16.92;15.13;;;;;;;;;;5048413;28;20112;-64
2021/08/29 13:47:00;;;;;;;17.73;15.18;;;;;;;;;;5048189;28;20029;-64
2021/08/29 13:49:26;;;;;;;16.98;14.60;;;;;;;;;;5046018;28;20033;-64
2021/08/29 13:51:51;;;;;;;16.85;14.90;;;;;;;;;;5049996;28;20039;-64
2021/08/29 13:54:17;;;;;;;16.60;14.80;;;;;;;;;;5047925;28;20025;-64
2021/08/29 13:56:43;;;;;;;17.42;14.10;;;;;;;;;;5047103;28;20433;-64
2021/08/29 13:59:09;;;;;;;16.48;14.18;;;;;;;;;;5048637;28;20044;-64
2021/08/29 14:01:35;;;;;;;18.73;15.90;;;;;;;;;;5049855;28;20061;-63
2021/08/29 14:04:01;;;;;;;16.83;14.25;;;;;;;;;;5068532;28;20396;-64
2021/08/29 14:06:27;;;;;;;16.80;14.52;;;;;;;;;;5066602;28;20141;-64
2021/08/29 14:08:53;;;;;;;17.05;15.25;;;;;;;;;;5067161;28;20027;-63
2021/08/29 14:11:19;;;;;;;17.48;15.57;;;;;;;;;;5068159;28;20131;-64
2021/08/29 14:13:45;;;;;;;16.60;14.80;;;;;;;;;;5066633;28;20090;-64
2021/08/29 14:16:11;;;;;;;16.50;14.68;;;;;;;;;;5068112;28;20064;-64
2021/08/29 14:18:37;;;;;;;16.73;14.93;;;;;;;;;;5067104;28;20403;-65